Time;durP1;ratioP1;P1;durP2;ratioP2;P2;SDS_P1;SDS_P2;PMS_P1;PMS_P2;Temp;Humidity;BMP_temperature;BMP_pressure;BME280_temperature;BME280_humidity;BME280_pressure;Samples;Min_cycle;Max_cycle;Signal;HPM_P1;HPM_P2
2021/05/03 04:01:59;;;;;;;11.30;10.10;;;6.60;99.90;;;;;;5255633;23;20523;-65
2021/05/03 04:04:28;;;;;;;10.43;9.43;;;6.60;99.90;;;;;;4987804;28;20848;-66
2021/05/03 04:06:58;;;;;;;11.90;10.70;;;6.60;99.90;;;;;;4981964;28;20454;-66
2021/05/03 04:09:32;;;;;;;11.70;10.50;;;6.60;99.90;;;;;;4980262;28;20444;-66
2021/05/03 04:12:15;;;;;;;10.83;9.83;;;6.60;99.90;;;;;;4981818;28;20475;-65
2021/05/03 04:23:23;;;;;;;10.20;9.33;;;6.60;99.90;;;;;;4979373;28;20418;-65
2021/05/03 04:25:50;;;;;;;10.83;9.63;;;6.60;99.90;;;;;;4979004;28;20439;-66
2021/05/03 04:28:16;;;;;;;10.10;9.20;;;6.60;99.90;;;;;;4979088;28;20478;-66
2021/05/03 04:30:42;;;;;;;10.53;9.63;;;6.60;99.90;;;;;;4979351;28;20840;-65
2021/05/03 04:33:09;;;;;;;10.90;9.90;;;6.60;99.90;;;;;;4978959;28;20451;-67
2021/05/03 04:35:35;;;;;;;11.10;10.00;;;6.60;99.90;;;;;;4979478;28;20461;-66
2021/05/03 04:38:02;;;;;;;11.00;10.00;;;6.70;99.90;;;;;;4979409;28;20455;-66
2021/05/03 04:40:28;;;;;;;11.70;10.60;;;6.60;99.90;;;;;;4978830;28;20455;-67
2021/05/03 04:42:55;;;;;;;10.60;9.40;;;6.70;99.90;;;;;;4978458;28;20953;-68
2021/05/03 04:45:21;;;;;;;11.07;9.97;;;6.70;99.90;;;;;;4979019;28;20458;-66
2021/05/03 04:47:47;;;;;;;10.40;9.40;;;6.70;99.90;;;;;;4978673;28;20486;-67
2021/05/03 04:50:14;;;;;;;9.70;8.80;;;6.70;99.90;;;;;;4979032;28;20462;-66
2021/05/03 04:52:40;;;;;;;10.23;9.23;;;6.70;99.90;;;;;;4979304;28;20454;-67
2021/05/03 04:55:08;;;;;;;11.23;10.13;;;6.70;99.90;;;;;;4977538;28;20461;-67
2021/05/03 04:57:35;;;;;;;10.53;9.63;;;7.00;99.90;;;;;;4977805;28;20482;-68
2021/05/03 05:00:01;;;;;;;10.33;9.43;;;7.10;99.90;;;;;;4977264;28;20462;-68
2021/05/03 05:02:28;;;;;;;9.30;8.40;;;7.20;99.90;;;;;;4976910;28;20533;-66
2021/05/03 05:04:54;;;;;;;9.33;8.40;;;7.40;99.90;;;;;;4977021;28;20945;-65
2021/05/03 05:07:22;;;;;;;10.63;9.73;;;7.70;99.90;;;;;;4976993;28;20450;-65
2021/05/03 05:09:48;;;;;;;10.17;9.27;;;7.70;99.90;;;;;;4976800;28;20477;-66
2021/05/03 05:12:14;;;;;;;10.30;9.30;;;7.60;99.90;;;;;;4976472;28;20470;-65
2021/05/03 05:14:40;;;;;;;10.40;9.50;;;7.70;99.90;;;;;;4976886;28;20459;-67
2021/05/03 05:17:07;;;;;;;10.80;9.50;;;7.70;99.90;;;;;;4976757;28;20462;-66
2021/05/03 05:19:33;;;;;;;12.03;9.53;;;7.60;99.90;;;;;;4976639;28;20470;-66
2021/05/03 05:22:00;;;;;;;9.97;9.07;;;7.50;99.90;;;;;;4984014;28;20475;-65
2021/05/03 05:24:27;;;;;;;10.53;9.53;;;7.60;99.90;;;;;;4978838;28;20461;-65
2021/05/03 05:26:53;;;;;;;11.20;10.10;;;7.60;99.90;;;;;;4976603;28;20458;-65
2021/05/03 05:29:24;;;;;;;10.70;9.70;;;7.70;99.90;;;;;;4976480;28;20483;-65
2021/05/03 05:31:50;;;;;;;11.00;10.07;;;7.80;99.90;;;;;;4976834;28;20969;-64
2021/05/03 05:34:16;;;;;;;10.67;9.60;;;8.10;99.90;;;;;;4976224;28;20450;-65
2021/05/03 05:36:42;;;;;;;11.93;10.00;;;8.40;99.90;;;;;;4975547;28;20791;-64
2021/05/03 05:39:09;;;;;;;11.87;10.73;;;8.80;99.90;;;;;;4975908;28;20965;-64
2021/05/03 05:41:36;;;;;;;12.20;11.10;;;9.20;99.90;;;;;;4976265;28;20502;-64
2021/05/03 05:44:02;;;;;;;11.70;10.60;;;9.50;99.90;;;;;;4976115;28;20965;-64
2021/05/03 05:46:29;;;;;;;13.20;12.07;;;9.50;99.90;;;;;;4976494;28;20513;-65
2021/05/03 05:48:55;;;;;;;14.57;13.17;;;9.70;99.90;;;;;;4976304;28;20501;-64
2021/05/03 05:51:21;;;;;;;15.83;14.43;;;9.50;99.90;;;;;;4976613;28;20529;-65
2021/05/03 05:53:47;;;;;;;14.30;12.90;;;9.30;99.90;;;;;;4975943;28;20470;-65
2021/05/03 05:56:13;;;;;;;14.00;12.43;;;8.90;99.90;;;;;;4975628;28;20454;-65
2021/05/03 05:58:40;;;;;;;14.23;12.60;;;8.90;99.90;;;;;;4978049;28;20451;-64
2021/05/03 06:01:07;;;;;;;13.23;11.93;;;9.10;99.90;;;;;;4983527;28;20486;-65
2021/05/03 06:03:33;;;;;;;13.20;12.00;;;9.50;99.90;;;;;;4988765;28;20813;-65
2021/05/03 06:05:59;;;;;;;12.47;11.07;;;9.90;99.90;;;;;;4982298;28;20443;-65
2021/05/03 06:08:25;;;;;;;12.60;11.50;;;10.40;99.90;;;;;;4983283;28;20483;-67
2021/05/03 06:10:51;;;;;;;12.20;11.07;;;10.50;99.90;;;;;;4993243;28;20471;-65
2021/05/03 06:13:18;;;;;;;16.20;13.60;;;10.60;99.90;;;;;;4995348;28;20457;-64
2021/05/03 06:15:45;;;;;;;12.83;11.63;;;10.60;99.90;;;;;;4988537;28;20454;-66
2021/05/03 06:18:11;;;;;;;12.27;11.07;;;10.40;99.90;;;;;;4983596;28;20937;-65
2021/05/03 06:20:38;;;;;;;11.97;11.00;;;10.70;99.90;;;;;;4983012;28;20514;-66
2021/05/03 06:23:06;;;;;;;11.97;10.80;;;11.10;99.90;;;;;;4982056;28;20949;-65
2021/05/03 06:25:33;;;;;;;12.40;11.30;;;11.60;99.90;;;;;;4979799;28;20549;-65
2021/05/03 06:28:00;;;;;;;12.43;10.70;;;12.30;99.90;;;;;;4978784;28;20528;-65
2021/05/03 06:30:27;;;;;;;11.57;10.47;;;13.00;99.90;;;;;;4976315;28;20529;-64
2021/05/03 06:32:55;;;;;;;11.17;10.27;;;13.50;99.90;;;;;;4975877;28;20458;-64
2021/05/03 06:35:23;;;;;;;10.50;9.50;;;13.90;99.90;;;;;;4975521;28;20458;-65
2021/05/03 06:37:50;;;;;;;10.70;10.00;;;14.40;99.90;;;;;;4975778;28;20482;-66
2021/05/03 06:40:18;;;;;;;11.90;10.97;;;14.50;99.90;;;;;;4977330;28;20459;-64
2021/05/03 06:42:46;;;;;;;10.97;10.07;;;14.90;99.90;;;;;;4976967;28;20978;-66
2021/05/03 06:45:13;;;;;;;10.37;9.57;;;14.80;99.90;;;;;;4985407;28;20487;-67
2021/05/03 06:47:39;;;;;;;12.77;10.40;;;15.20;99.90;;;;;;4987600;28;20470;-66
2021/05/03 06:50:09;;;;;;;10.23;9.43;;;15.80;99.90;;;;;;4986801;28;20443;-65
2021/05/03 06:52:37;;;;;;;10.20;9.50;;;16.30;97.70;;;;;;4985888;28;20499;-66
2021/05/03 06:55:03;;;;;;;10.60;9.70;;;16.80;95.30;;;;;;4985981;28;20462;-66
2021/05/03 06:57:30;;;;;;;9.80;9.00;;;17.30;93.30;;;;;;4986324;28;20462;-66
2021/05/03 06:59:56;;;;;;;9.43;8.63;;;17.10;93.10;;;;;;4985953;28;20482;-66
2021/05/03 07:02:24;;;;;;;9.87;8.97;;;17.50;91.70;;;;;;4985847;28;20491;-66
2021/05/03 07:04:50;;;;;;;9.53;7.70;;;17.50;90.60;;;;;;4984636;28;20482;-66
2021/05/03 07:07:17;;;;;;;8.20;7.50;;;17.90;88.00;;;;;;4976602;28;20461;-66
2021/05/03 07:09:46;;;;;;;8.27;7.67;;;18.60;82.60;;;;;;4976736;28;20481;-65
2021/05/03 07:12:13;;;;;;;9.43;8.63;;;18.80;79.30;;;;;;4976491;28;20486;-66
2021/05/03 07:14:39;;;;;;;9.90;8.80;;;17.70;78.40;;;;;;4977264;28;20472;-65
2021/05/03 07:17:06;;;;;;;10.50;8.10;;;17.50;83.30;;;;;;4975783;28;20906;-65
2021/05/03 07:19:32;;;;;;;8.17;7.43;;;17.80;80.70;;;;;;4976171;28;20501;-65
2021/05/03 07:21:58;;;;;;;8.73;8.00;;;17.50;79.10;;;;;;4976152;28;20474;-64
2021/05/03 07:24:26;;;;;;;8.27;7.67;;;16.60;79.70;;;;;;4975622;28;20525;-65
2021/05/03 07:26:52;;;;;;;9.20;8.50;;;16.70;82.80;;;;;;4975935;28;20831;-65
2021/05/03 07:29:18;;;;;;;9.93;9.00;;;16.30;84.60;;;;;;4975773;28;20486;-65
2021/05/03 07:31:44;;;;;;;9.47;8.77;;;16.00;88.00;;;;;;4975737;28;20481;-64
2021/05/03 07:34:11;;;;;;;10.33;9.43;;;16.40;88.70;;;;;;4976967;28;20459;-64
2021/05/03 07:36:37;;;;;;;8.90;8.20;;;16.50;88.60;;;;;;4976213;28;20455;-65
2021/05/03 07:39:05;;;;;;;10.83;9.40;;;16.70;84.10;;;;;;4975631;28;20451;-64
2021/05/03 07:41:32;;;;;;;9.53;8.70;;;17.20;82.20;;;;;;4975039;28;20985;-64
2021/05/03 07:43:58;;;;;;;9.83;9.13;;;17.80;80.70;;;;;;4975665;28;20520;-63
2021/05/03 07:46:25;;;;;;;9.40;8.60;;;17.60;78.30;;;;;;4975908;28;20505;-64
2021/05/03 07:48:51;;;;;;;8.30;7.60;;;18.00;78.90;;;;;;4976514;28;20565;-65
2021/05/03 07:51:18;;;;;;;9.03;8.33;;;18.30;78.00;;;;;;4975287;28;20474;-65
2021/05/03 07:53:44;;;;;;;8.20;7.50;;;18.50;78.00;;;;;;4975576;28;20454;-65
2021/05/03 07:56:14;;;;;;;8.97;8.33;;;19.20;76.60;;;;;;4975682;28;20650;-66
2021/05/03 07:58:41;;;;;;;9.50;8.50;;;19.90;73.70;;;;;;4978761;28;20455;-66
2021/05/03 08:01:07;;;;;;;8.80;8.10;;;20.70;74.30;;;;;;4979678;28;20534;-65
2021/05/03 08:03:36;;;;;;;9.03;8.33;;;20.70;66.60;;;;;;4979205;28;20465;-65
2021/05/03 08:06:04;;;;;;;8.40;7.80;;;20.00;65.70;;;;;;4978861;28;20451;-65
2021/05/03 08:08:30;;;;;;;8.87;8.17;;;20.30;65.70;;;;;;4979168;28;20483;-65
2021/05/03 08:10:56;;;;;;;9.37;8.67;;;18.60;65.00;;;;;;4979248;28;20538;-65
2021/05/03 08:13:23;;;;;;;9.03;8.20;;;19.30;71.80;;;;;;4979159;28;20514;-63
2021/05/03 08:15:52;;;;;;;8.63;8.03;;;19.20;69.60;;;;;;4980811;28;20497;-65
2021/05/03 08:18:18;;;;;;;8.00;7.30;;;19.80;67.90;;;;;;4979768;28;20455;-64
2021/05/03 08:20:45;;;;;;;8.07;7.47;;;19.10;65.60;;;;;;4978522;28;20485;-65
2021/05/03 08:23:18;;;;;;;7.57;6.80;;;19.00;65.00;;;;;;4978641;28;20454;-64
2021/05/03 08:25:44;;;;;;;8.13;7.43;;;19.40;67.10;;;;;;4978338;28;20797;-65
2021/05/03 08:28:10;;;;;;;7.63;7.03;;;19.00;66.20;;;;;;4977710;28;20977;-64
2021/05/03 08:30:37;;;;;;;7.33;6.63;;;19.90;70.00;;;;;;4977709;28;20483;-65
2021/05/03 08:33:04;;;;;;;6.73;6.10;;;20.40;65.60;;;;;;4977783;28;20455;-64
2021/05/03 08:35:30;;;;;;;6.80;6.10;;;20.20;61.70;;;;;;4977796;28;20485;-64
2021/05/03 08:37:57;;;;;;;6.97;5.83;;;20.20;62.90;;;;;;4977797;28;20435;-63
2021/05/03 08:40:23;;;;;;;8.13;7.43;;;20.20;59.10;;;;;;4977957;28;20439;-64
2021/05/03 08:42:50;;;;;;;6.93;6.43;;;19.70;60.10;;;;;;4977963;28;20447;-65
2021/05/03 08:45:17;;;;;;;7.87;7.27;;;19.40;61.60;;;;;;4981107;28;20796;-65
2021/05/03 08:47:55;;;;;;;7.57;6.97;;;18.60;66.90;;;;;;4989478;28;20442;-64
2021/05/03 08:50:29;;;;;;;10.17;8.27;;;18.50;69.70;;;;;;4978192;28;20819;-64
2021/05/03 08:52:57;;;;;;;7.30;6.60;;;18.50;64.60;;;;;;4977610;28;20534;-64
2021/05/03 08:55:24;;;;;;;7.63;7.07;;;18.60;69.00;;;;;;4977467;28;20465;-63
2021/05/03 08:57:50;;;;;;;8.63;7.13;;;19.10;66.30;;;;;;4977470;28;20910;-63
2021/05/03 09:00:17;;;;;;;7.20;6.50;;;19.90;68.40;;;;;;4977563;28;20925;-64
2021/05/03 09:02:45;;;;;;;7.33;6.73;;;20.70;66.10;;;;;;4977974;28;20450;-64
2021/05/03 09:05:12;;;;;;;7.97;7.37;;;20.60;63.30;;;;;;4976947;28;20455;-65
2021/05/03 09:07:47;;;;;;;7.67;7.07;;;20.50;62.50;;;;;;4977024;28;20450;-65
2021/05/03 09:10:15;;;;;;;8.53;7.73;;;20.10;61.00;;;;;;4976173;28;20449;-64
2021/05/03 09:12:41;;;;;;;8.13;7.53;;;19.30;62.80;;;;;;4976365;28;20565;-64
2021/05/03 09:15:08;;;;;;;7.13;6.63;;;18.90;65.50;;;;;;4976495;28;20461;-65
2021/05/03 09:17:36;;;;;;;8.50;7.10;;;18.70;64.90;;;;;;4977920;28;20459;-65
2021/05/03 09:20:05;;;;;;;7.97;7.47;;;18.40;65.10;;;;;;4977138;28;20462;-64
2021/05/03 09:22:36;;;;;;;7.77;7.17;;;17.90;63.60;;;;;;4976688;28;20479;-64
2021/05/03 09:25:22;;;;;;;7.03;6.63;;;18.30;65.50;;;;;;4977197;28;20453;-64
2021/05/03 09:27:49;;;;;;;7.23;6.73;;;18.50;64.20;;;;;;4978132;28;20882;-65
2021/05/03 09:30:31;;;;;;;6.50;6.00;;;18.60;66.40;;;;;;4976851;28;20515;-64
2021/05/03 09:33:18;;;;;;;7.90;7.20;;;18.40;66.50;;;;;;4976771;28;20461;-63
2021/05/03 09:35:46;;;;;;;7.10;6.60;;;19.10;66.80;;;;;;4977155;28;20505;-64
2021/05/03 09:38:33;;;;;;;7.37;6.87;;;18.90;64.50;;;;;;4977001;28;20976;-64
2021/05/03 09:41:23;;;;;;;7.80;6.70;;;19.20;64.90;;;;;;4976738;28;20474;-65
2021/05/03 09:43:50;;;;;;;7.70;7.10;;;19.30;61.10;;;;;;4981708;28;20443;-64
2021/05/03 09:46:35;;;;;;;7.93;7.13;;;19.10;61.70;;;;;;4976069;28;20469;-64
2021/05/03 09:49:04;;;;;;;7.00;6.50;;;18.80;60.10;;;;;;4976368;28;20215;-65
2021/05/03 09:51:38;;;;;;;13.63;8.80;;;18.60;60.20;;;;;;4976481;28;20479;-64
2021/05/03 09:54:07;;;;;;;8.30;7.60;;;18.50;64.20;;;;;;4976800;28;20493;-66
2021/05/03 09:56:55;;;;;;;8.67;7.80;;;18.30;63.70;;;;;;4976685;28;20455;-64
2021/05/03 09:59:27;;;;;;;7.30;6.63;;;18.30;64.50;;;;;;4976116;28;20921;-64
2021/05/03 10:02:01;;;;;;;11.90;7.67;;;17.90;64.90;;;;;;4976122;28;20487;-64
2021/05/03 10:04:28;;;;;;;6.50;6.10;;;17.90;64.90;;;;;;4976201;28;20945;-65
2021/05/03 10:06:54;;;;;;;5.90;5.40;;;17.60;61.40;;;;;;4976442;28;20458;-64
2021/05/03 10:09:20;;;;;;;6.00;5.40;;;17.60;61.70;;;;;;4975749;28;20478;-65
2021/05/03 10:11:47;;;;;;;6.60;6.00;;;16.80;61.80;;;;;;4975971;28;20475;-66
2021/05/03 10:14:15;;;;;;;6.43;5.63;;;16.40;62.30;;;;;;4979352;28;20505;-65
2021/05/03 10:16:41;;;;;;;6.83;6.17;;;16.30;64.10;;;;;;4978825;28;20509;-65
2021/05/03 10:19:08;;;;;;;5.63;5.23;;;16.00;68.70;;;;;;4975721;28;20451;-65
2021/05/03 10:21:35;;;;;;;5.27;4.97;;;16.00;64.40;;;;;;4975617;28;20475;-65
2021/05/03 10:24:02;;;;;;;5.57;5.17;;;15.90;64.10;;;;;;4975264;28;20457;-64
2021/05/03 10:26:29;;;;;;;5.77;5.27;;;15.60;62.60;;;;;;4975468;28;20828;-64
2021/05/03 10:28:57;;;;;;;6.37;5.87;;;15.60;64.50;;;;;;4975376;28;20478;-65
2021/05/03 10:31:25;;;;;;;5.93;5.53;;;15.50;62.30;;;;;;4975607;28;20485;-63
2021/05/03 10:33:52;;;;;;;5.80;5.30;;;15.70;64.80;;;;;;4975402;28;20463;-66
2021/05/03 10:36:33;;;;;;;7.83;5.53;;;16.40;66.00;;;;;;4976178;28;20506;-65
2021/05/03 10:38:59;;;;;;;5.97;5.10;;;16.80;62.90;;;;;;4975121;28;20461;-65
2021/05/03 10:41:26;;;;;;;5.83;5.27;;;17.00;63.70;;;;;;4974964;28;20474;-64
2021/05/03 10:44:11;;;;;;;4.83;4.50;;;17.50;62.60;;;;;;4998546;23;20487;-64
2021/05/03 10:49:39;;;;;;;5.77;5.37;;;17.90;62.20;;;;;;4975486;28;20473;-64
2021/05/03 10:52:07;;;;;;;4.80;4.50;;;18.40;61.80;;;;;;4975429;28;20886;-64
2021/05/03 10:57:38;;;;;;;4.73;4.43;;;19.30;58.70;;;;;;4975134;28;20494;-65
2021/05/03 11:00:11;;;;;;;5.30;5.00;;;19.40;56.20;;;;;;4975554;28;20872;-64
2021/05/03 11:02:48;;;;;;;4.60;4.23;;;19.90;56.80;;;;;;4975057;28;20969;-64
2021/05/03 11:05:23;;;;;;;4.57;4.27;;;20.00;53.90;;;;;;4975244;28;20805;-64
2021/05/03 11:08:30;;;;;;;4.00;3.80;;;20.20;56.80;;;;;;4992067;28;20470;-65
2021/05/03 11:11:05;;;;;;;4.60;4.30;;;20.00;54.80;;;;;;4995101;28;20434;-66
2021/05/03 11:13:53;;;;;;;4.63;4.23;;;19.00;52.40;;;;;;4981277;28;20486;-65
2021/05/03 11:16:53;;;;;;;4.93;4.63;;;19.10;56.80;;;;;;4986252;28;20447;-65
2021/05/03 11:20:00;;;;;;;5.33;4.93;;;19.20;60.40;;;;;;4974224;28;20503;-65
2021/05/03 11:22:41;;;;;;;4.50;4.10;;;19.40;55.80;;;;;;4976013;28;20806;-66
2021/05/03 11:25:11;;;;;;;5.73;4.80;;;19.70;57.80;;;;;;4976576;28;20502;-66
2021/05/03 11:27:44;;;;;;;4.07;3.80;;;20.30;58.20;;;;;;4976140;28;20520;-65
2021/05/03 11:30:13;;;;;;;4.40;4.00;;;20.80;58.70;;;;;;4975420;28;20968;-64
2021/05/03 11:32:40;;;;;;;3.63;3.43;;;20.40;53.00;;;;;;4975760;28;20510;-65
2021/05/03 11:35:22;;;;;;;4.20;3.90;;;20.70;53.00;;;;;;4977963;28;20549;-65
2021/05/03 11:37:55;;;;;;;5.37;4.30;;;20.00;50.70;;;;;;4980859;28;20497;-64
2021/05/03 11:43:32;;;;;;;4.10;3.90;;;19.10;51.80;;;;;;4979586;28;20569;-65
2021/05/03 11:46:04;;;;;;;4.50;4.20;;;18.30;53.10;;;;;;4981520;28;20445;-63
2021/05/03 11:48:32;;;;;;;5.03;4.63;;;18.00;56.80;;;;;;4980242;28;20518;-63
2021/05/03 11:51:04;;;;;;;4.50;4.20;;;17.70;54.80;;;;;;4979816;28;20960;-65
2021/05/03 11:53:41;;;;;;;5.97;4.23;;;17.90;57.30;;;;;;4980094;28;20485;-63
2021/05/03 11:56:19;;;;;;;4.00;3.80;;;18.00;54.30;;;;;;4978912;28;20442;-63
2021/05/03 11:58:45;;;;;;;5.93;4.10;;;17.90;57.20;;;;;;4978214;28;20795;-64
2021/05/03 12:01:13;;;;;;;4.40;3.53;;;18.30;57.30;;;;;;4978685;28;20461;-63
2021/05/03 12:03:42;;;;;;;3.43;3.27;;;18.10;54.80;;;;;;4978508;28;20985;-64
2021/05/03 12:06:09;;;;;;;4.13;3.83;;;18.60;53.00;;;;;;4980451;28;20439;-63
2021/05/03 12:08:36;;;;;;;3.90;3.60;;;18.50;57.00;;;;;;4991133;28;20474;-64
2021/05/03 12:11:08;;;;;;;3.70;3.40;;;18.70;54.00;;;;;;4984633;28;20771;-64
2021/05/03 12:13:35;;;;;;;3.87;3.50;;;19.00;55.70;;;;;;4985813;28;20474;-63
2021/05/03 12:16:01;;;;;;;3.93;3.73;;;18.70;52.20;;;;;;4980089;28;20466;-64
2021/05/03 12:18:27;;;;;;;3.93;3.73;;;18.60;53.50;;;;;;4980894;28;20509;-67
2021/05/03 12:20:54;;;;;;;3.47;3.27;;;18.40;53.90;;;;;;4979574;28;20550;-66
2021/05/03 12:23:25;;;;;;;6.33;4.40;;;18.40;57.10;;;;;;4980040;28;20514;-65
2021/05/03 12:25:53;;;;;;;3.80;3.50;;;18.40;56.20;;;;;;4978996;28;20434;-66
2021/05/03 12:28:21;;;;;;;3.40;3.20;;;18.30;55.70;;;;;;4978250;28;20482;-64
2021/05/03 12:30:49;;;;;;;3.70;3.50;;;18.30;57.50;;;;;;4978730;28;20454;-65
2021/05/03 12:33:18;;;;;;;4.10;3.50;;;18.40;56.00;;;;;;4978091;28;20475;-65
2021/05/03 12:35:45;;;;;;;2.93;2.53;;;18.10;54.40;;;;;;4978416;28;20462;-64
2021/05/03 12:38:19;;;;;;;4.10;3.90;;;18.30;57.00;;;;;;4978066;28;20457;-64
2021/05/03 12:40:46;;;;;;;3.77;3.47;;;18.20;52.50;;;;;;4977894;28;20972;-65
2021/05/03 12:43:13;;;;;;;4.03;3.40;;;18.10;54.50;;;;;;4977786;28;20490;-64
2021/05/03 12:45:49;;;;;;;4.23;3.93;;;18.30;57.40;;;;;;4977630;28;20862;-64
2021/05/03 12:48:26;;;;;;;3.90;3.53;;;18.40;55.10;;;;;;4977892;28;20498;-65
2021/05/03 12:53:55;;;;;;;3.93;3.67;;;17.80;58.00;;;;;;4962736;28;20530;-64
2021/05/03 12:56:28;;;;;;;3.73;3.43;;;17.90;57.20;;;;;;4978083;28;20439;-64
2021/05/03 12:59:15;;;;;;;3.10;3.00;;;18.40;55.00;;;;;;4977640;28;20427;-64
2021/05/03 13:01:49;;;;;;;3.53;3.33;;;18.40;53.70;;;;;;4978702;28;20490;-64
2021/05/03 13:04:31;;;;;;;3.87;3.67;;;17.90;52.90;;;;;;4978241;28;20477;-64
2021/05/03 13:07:27;;;;;;;3.33;3.13;;;18.00;52.30;;;;;;4978411;28;20451;-65
2021/05/03 13:10:36;;;;;;;3.50;3.30;;;18.20;54.30;;;;;;4987600;28;21032;-65
2021/05/03 13:29:59;;;;;;;2.60;2.40;;;19.60;56.30;;;;;;4977014;28;20462;-66
2021/05/03 13:32:27;;;;;;;2.40;2.30;;;19.80;53.30;;;;;;4977458;28;20988;-64
2021/05/03 13:34:55;;;;;;;2.87;2.67;;;19.90;54.90;;;;;;4977946;28;20466;-64
2021/05/03 13:37:22;;;;;;;2.90;2.70;;;19.90;53.80;;;;;;4977970;28;20454;-65
2021/05/03 13:39:49;;;;;;;3.07;2.87;;;20.00;55.70;;;;;;4977136;28;20476;-62
2021/05/03 13:42:15;;;;;;;3.23;3.03;;;20.20;52.90;;;;;;4979285;28;20461;-65
2021/05/03 13:44:44;;;;;;;2.73;2.40;;;20.20;50.60;;;;;;4983449;28;20493;-65
2021/05/03 13:47:11;;;;;;;2.93;2.83;;;20.00;51.10;;;;;;4978395;28;20458;-64
2021/05/03 13:49:39;;;;;;;3.13;2.83;;;20.00;49.30;;;;;;4977096;28;20474;-65
2021/05/03 13:52:07;;;;;;;3.57;2.23;;;19.40;50.70;;;;;;4979019;28;20446;-64
2021/05/03 13:54:34;;;;;;;2.53;2.37;;;19.20;53.90;;;;;;4981055;28;20458;-64
2021/05/03 13:57:02;;;;;;;3.00;2.33;;;19.10;53.30;;;;;;4979731;28;20463;-65
2021/05/03 13:59:28;;;;;;;3.33;3.13;;;18.90;51.90;;;;;;4977884;28;20442;-66
2021/05/03 14:01:55;;;;;;;2.40;2.30;;;18.70;56.00;;;;;;4977542;28;20463;-65
2021/05/03 14:04:22;;;;;;;4.90;2.30;;;18.90;54.60;;;;;;4979272;28;20474;-66
2021/05/03 14:06:49;;;;;;;2.53;2.43;;;18.80;54.60;;;;;;4987695;28;20450;-65
2021/05/03 14:09:16;;;;;;;2.73;2.53;;;18.90;51.90;;;;;;4979226;28;20478;-64
2021/05/03 14:11:42;;;;;;;2.90;2.70;;;18.80;52.20;;;;;;4976860;28;20459;-64
2021/05/03 14:14:09;;;;;;;6.13;2.77;;;18.60;51.00;;;;;;4978187;28;20503;-63
2021/05/03 14:16:35;;;;;;;2.73;2.63;;;18.70;53.80;;;;;;4977417;28;21002;-65
2021/05/03 14:19:06;;;;;;;2.83;2.63;;;18.70;51.80;;;;;;4976619;28;20530;-65
2021/05/03 14:21:33;;;;;;;3.40;2.47;;;18.70;55.00;;;;;;4976446;28;20450;-65
2021/05/03 14:23:59;;;;;;;3.20;3.00;;;18.80;53.20;;;;;;4976137;28;20479;-65
2021/05/03 14:26:27;;;;;;;2.80;2.70;;;19.10;54.40;;;;;;4976347;28;20450;-65
2021/05/03 14:28:59;;;;;;;3.90;3.50;;;19.40;56.20;;;;;;4976175;28;20549;-65
2021/05/03 14:31:29;;;;;;;3.10;2.90;;;19.60;50.50;;;;;;4977313;28;20439;-66
2021/05/03 14:34:05;;;;;;;7.80;3.90;;;19.40;52.80;;;;;;4976356;28;20478;-65
2021/05/03 14:36:32;;;;;;;14.63;3.93;;;19.00;54.50;;;;;;4976541;28;20477;-65
2021/05/03 14:38:59;;;;;;;10.17;3.83;;;18.80;53.60;;;;;;4976619;28;20454;-65
2021/05/03 14:41:25;;;;;;;31.33;4.50;;;18.90;54.90;;;;;;4977133;28;20512;-64
2021/05/03 14:43:51;;;;;;;12.83;4.17;;;18.90;54.50;;;;;;4976755;28;20482;-65
2021/05/03 14:46:27;;;;;;;4.50;3.97;;;19.20;55.40;;;;;;4975149;28;20949;-66
2021/05/03 14:48:58;;;;;;;4.10;3.80;;;19.10;53.80;;;;;;4975366;28;20557;-66
2021/05/03 14:57:00;;;;;;;3.63;3.43;;;19.40;50.60;;;;;;4971937;28;20454;-63
2021/05/03 14:59:26;;;;;;;3.97;3.67;;;19.40;53.30;;;;;;4975969;28;20454;-64
2021/05/03 15:01:53;;;;;;;3.87;3.57;;;19.10;50.70;;;;;;4975585;28;20458;-63
2021/05/03 15:04:19;;;;;;;5.83;5.27;;;18.90;51.70;;;;;;4975316;28;21035;-63
2021/05/03 15:06:46;;;;;;;3.83;3.53;;;18.50;51.90;;;;;;4975938;28;20482;-64
2021/05/03 15:09:17;;;;;;;4.03;3.80;;;18.30;52.80;;;;;;4979013;28;20466;-63
2021/05/03 15:11:45;;;;;;;4.60;3.90;;;18.10;52.60;;;;;;4980292;28;20443;-62
2021/05/03 15:14:15;;;;;;;3.53;3.23;;;17.90;53.00;;;;;;4979750;28;20482;-63
2021/05/03 15:16:46;;;;;;;5.27;3.90;;;17.70;51.80;;;;;;4997800;28;20468;-63
2021/05/03 15:19:25;;;;;;;4.17;3.50;;;17.80;53.90;;;;;;4993249;28;20458;-63
2021/05/03 15:21:51;;;;;;;4.40;4.03;;;17.80;55.20;;;;;;4979178;28;20443;-62
2021/05/03 15:24:18;;;;;;;3.90;3.47;;;17.70;55.40;;;;;;4978637;28;21002;-63
2021/05/03 15:26:50;;;;;;;4.10;3.70;;;17.70;57.10;;;;;;4978816;28;20469;-63
2021/05/03 15:32:20;;;;;;;5.13;4.73;;;17.70;55.60;;;;;;4976530;28;20542;-63
2021/05/03 15:34:46;;;;;;;3.70;3.50;;;17.40;56.10;;;;;;4978595;28;20548;-63
2021/05/03 15:37:13;;;;;;;4.20;3.90;;;17.30;55.10;;;;;;4978745;28;20532;-64
2021/05/03 15:39:39;;;;;;;4.27;4.07;;;17.10;54.00;;;;;;4978739;28;20749;-65
2021/05/03 15:42:06;;;;;;;3.83;3.53;;;17.20;55.50;;;;;;4978271;28;20451;-63
2021/05/03 15:44:35;;;;;;;4.40;3.93;;;17.20;55.10;;;;;;4978690;28;20462;-64
2021/05/03 15:47:03;;;;;;;4.47;4.03;;;17.20;55.20;;;;;;4979167;28;20465;-65
2021/05/03 15:49:30;;;;;;;4.50;4.20;;;17.00;52.70;;;;;;4979218;28;20512;-66
2021/05/03 15:51:56;;;;;;;4.13;3.73;;;17.00;53.50;;;;;;4979571;28;20454;-66
2021/05/03 15:54:22;;;;;;;4.10;3.80;;;16.90;53.60;;;;;;4979312;28;20479;-65
2021/05/03 15:56:48;;;;;;;3.57;3.37;;;16.90;54.90;;;;;;4978241;28;20455;-65
2021/05/03 15:59:16;;;;;;;3.70;3.50;;;17.00;56.50;;;;;;4978369;28;20451;-65
2021/05/03 16:01:42;;;;;;;3.70;3.47;;;16.90;55.90;;;;;;4979287;28;20446;-65
2021/05/03 16:04:09;;;;;;;5.20;4.07;;;16.80;58.00;;;;;;4978712;28;20478;-65
2021/05/03 16:06:35;;;;;;;4.57;4.20;;;16.90;56.50;;;;;;4978126;28;20451;-65
2021/05/03 16:09:01;;;;;;;3.67;3.30;;;16.80;57.40;;;;;;4977840;28;20485;-66
2021/05/03 16:11:28;;;;;;;4.10;3.70;;;16.60;55.90;;;;;;4978092;28;20459;-66
2021/05/03 16:13:55;;;;;;;4.10;3.60;;;16.70;57.90;;;;;;4977695;28;20479;-66
2021/05/03 16:16:24;;;;;;;3.47;3.20;;;16.60;56.10;;;;;;4978110;28;20466;-66
2021/05/03 16:18:51;;;;;;;4.37;3.97;;;16.90;57.10;;;;;;4977959;28;20462;-66
2021/05/03 16:21:17;;;;;;;4.47;3.77;;;17.00;56.30;;;;;;4977337;28;20458;-66
2021/05/03 16:23:43;;;;;;;4.07;3.77;;;17.00;56.50;;;;;;4977524;28;20474;-66
2021/05/03 16:26:10;;;;;;;4.13;3.83;;;17.10;56.90;;;;;;4977802;28;20937;-66
2021/05/03 16:28:36;;;;;;;4.10;3.70;;;17.00;56.30;;;;;;4986100;28;20471;-66
2021/05/03 16:31:02;;;;;;;4.20;3.87;;;17.00;54.70;;;;;;4996518;28;20490;-65
2021/05/03 16:33:29;;;;;;;3.70;3.40;;;16.70;56.90;;;;;;4996458;28;20474;-65
2021/05/03 16:35:55;;;;;;;4.10;3.80;;;16.60;58.00;;;;;;4982164;28;20956;-64
2021/05/03 16:38:21;;;;;;;4.10;3.80;;;16.70;57.90;;;;;;4979612;28;20458;-65
2021/05/03 16:40:50;;;;;;;4.10;3.80;;;16.50;58.00;;;;;;4979760;28;20457;-66
2021/05/03 16:43:16;;;;;;;4.10;3.90;;;16.50;57.40;;;;;;4978528;28;20493;-65
2021/05/03 16:45:43;;;;;;;4.30;3.90;;;16.50;58.60;;;;;;4978662;28;20458;-66
2021/05/03 16:48:09;;;;;;;4.37;4.07;;;16.50;60.60;;;;;;4979548;28;20461;-65
2021/05/03 16:50:37;;;;;;;4.20;3.90;;;16.50;59.00;;;;;;4984234;28;20479;-65
2021/05/03 16:53:03;;;;;;;3.80;3.60;;;16.40;56.70;;;;;;4979870;28;20537;-64
2021/05/03 16:55:29;;;;;;;4.60;4.30;;;16.50;59.90;;;;;;4978001;28;20459;-64
2021/05/03 16:57:55;;;;;;;4.57;4.00;;;16.20;58.00;;;;;;4977824;28;20455;-64
2021/05/03 17:00:22;;;;;;;4.40;4.10;;;16.00;59.40;;;;;;4977600;28;20945;-65
2021/05/03 17:02:49;;;;;;;4.17;3.77;;;16.10;62.20;;;;;;4978562;28;20482;-64
2021/05/03 17:05:16;;;;;;;4.73;4.43;;;16.10;62.60;;;;;;4983851;28;20442;-65
2021/05/03 17:07:43;;;;;;;5.53;3.70;;;16.00;58.00;;;;;;4995232;28;20466;-65
2021/05/03 17:10:10;;;;;;;4.53;4.13;;;16.10;63.10;;;;;;4981367;28;20475;-65
2021/05/03 17:12:38;;;;;;;3.30;3.10;;;16.00;58.00;;;;;;4978034;28;20478;-65
2021/05/03 17:15:05;;;;;;;4.30;4.00;;;15.90;64.80;;;;;;4977385;28;20482;-66
2021/05/03 17:17:32;;;;;;;5.10;4.70;;;16.00;59.60;;;;;;4978362;28;20439;-65
2021/05/03 17:19:58;;;;;;;5.90;4.27;;;16.00;59.10;;;;;;4977335;28;20450;-66
2021/05/03 17:22:24;;;;;;;6.07;5.57;;;16.10;59.10;;;;;;4977246;28;20481;-67
2021/05/03 17:24:51;;;;;;;5.00;4.60;;;16.00;57.10;;;;;;4976707;28;20466;-67
2021/05/03 17:27:17;;;;;;;5.43;4.70;;;16.00;57.10;;;;;;4977101;28;20832;-67
2021/05/03 17:29:43;;;;;;;4.93;4.53;;;16.00;58.00;;;;;;4977256;28;20697;-68
2021/05/03 17:32:10;;;;;;;4.83;4.53;;;16.00;57.50;;;;;;4976822;28;20514;-67
2021/05/03 17:34:36;;;;;;;4.80;4.50;;;16.00;59.30;;;;;;4977417;28;20953;-67
2021/05/03 17:37:02;;;;;;;4.53;4.13;;;16.00;59.00;;;;;;4977067;28;20451;-66
2021/05/03 17:39:29;;;;;;;4.80;4.40;;;16.00;59.70;;;;;;4984746;28;20933;-67
2021/05/03 17:41:56;;;;;;;3.90;3.60;;;15.90;59.90;;;;;;4987918;28;20454;-66